Time;durP1;ratioP1;P1;durP2;ratioP2;P2;SDS_P1;SDS_P2;PMS_P1;PMS_P2;Temp;Humidity;BMP_temperature;BMP_pressure;BME280_temperature;BME280_humidity;BME280_pressure;Samples;Min_cycle;Max_cycle;Signal;HPM_P1;HPM_P2
2023/07/14 00:01:22;;;;;;;4.88;1.77;;;;;;;;;;5092513;28;20055;-82
2023/07/14 00:03:49;;;;;;;2.75;2.00;;;;;;;;;;5092887;28;20052;-83
2023/07/14 00:06:17;;;;;;;3.85;2.30;;;;;;;;;;5092942;28;20458;-82
2023/07/14 00:08:45;;;;;;;2.00;1.80;;;;;;;;;;5092828;28;20044;-82
2023/07/14 00:11:12;;;;;;;7.55;2.13;;;;;;;;;;5092671;28;20514;-82
2023/07/14 00:13:40;;;;;;;4.30;2.55;;;;;;;;;;5092660;28;20054;-82
2023/07/14 00:16:12;;;;;;;5.75;2.72;;;;;;;;;;5092298;28;20057;-82
2023/07/14 00:18:40;;;;;;;3.05;2.35;;;;;;;;;;5093452;28;20048;-82
2023/07/14 00:21:13;;;;;;;6.57;2.40;;;;;;;;;;5093056;28;20060;-82
2023/07/14 00:23:41;;;;;;;;;;;;;;;;;;5092993;28;20408;-82
2023/07/14 00:26:13;;;;;;;3.90;2.50;;;;;;;;;;5092922;28;20014;-82
2023/07/14 00:28:42;;;;;;;3.03;2.42;;;;;;;;;;5092240;28;20135;-82
2023/07/14 00:31:14;;;;;;;5.68;2.72;;;;;;;;;;5092042;28;20048;-83
2023/07/14 00:33:45;;;;;;;6.10;3.00;;;;;;;;;;5092367;28;20472;-82
2023/07/14 00:36:13;;;;;;;8.73;3.05;;;;;;;;;;5092104;28;20083;-82
2023/07/14 00:38:40;;;;;;;4.60;2.80;;;;;;;;;;5093235;28;20412;-82
2023/07/14 00:41:12;;;;;;;5.55;2.90;;;;;;;;;;5092907;28;20055;-82
2023/07/14 00:43:40;;;;;;;7.72;3.45;;;;;;;;;;5093033;28;20459;-82
2023/07/14 00:46:11;;;;;;;6.82;2.95;;;;;;;;;;5091942;28;20112;-82
2023/07/14 00:48:38;;;;;;;4.90;3.20;;;;;;;;;;5093173;28;20043;-82
2023/07/14 00:51:13;;;;;;;6.25;3.30;;;;;;;;;;5091689;28;20129;-81
2023/07/14 00:53:46;;;;;;;7.47;3.13;;;;;;;;;;5093127;28;20051;-82
2023/07/14 00:56:14;;;;;;;6.70;2.92;;;;;;;;;;5092089;28;20072;-81
2023/07/14 00:58:45;;;;;;;7.28;3.65;;;;;;;;;;5091875;28;20048;-82
2023/07/14 01:01:14;;;;;;;8.50;3.97;;;;;;;;;;5091695;28;20101;-81
2023/07/14 01:03:43;;;;;;;4.68;2.47;;;;;;;;;;5091559;28;20048;-82
2023/07/14 01:06:13;;;;;;;4.60;3.00;;;;;;;;;;5091631;28;20154;-82
2023/07/14 01:08:46;;;;;;;5.43;3.50;;;;;;;;;;5093029;28;20048;-82
2023/07/14 01:11:15;;;;;;;4.10;3.00;;;;;;;;;;5092743;28;20097;-82
2023/07/14 01:13:43;;;;;;;3.88;3.28;;;;;;;;;;5092646;28;20106;-82
2023/07/14 01:16:12;;;;;;;5.35;3.28;;;;;;;;;;5091361;28;20783;-82
2023/07/14 01:18:40;;;;;;;5.30;3.30;;;;;;;;;;5091542;28;20068;-82
2023/07/14 01:21:08;;;;;;;6.65;3.25;;;;;;;;;;5092474;28;20043;-82
2023/07/14 01:23:46;;;;;;;8.68;3.20;;;;;;;;;;5091512;28;20075;-82
2023/07/14 01:26:32;;;;;;;4.10;3.22;;;;;;;;;;5091387;28;20138;-81
2023/07/14 01:29:00;;;;;;;3.83;3.08;;;;;;;;;;5092378;28;20086;-82
2023/07/14 01:31:27;;;;;;;3.92;3.28;;;;;;;;;;5092520;28;20407;-82
2023/07/14 01:33:56;;;;;;;3.75;3.00;;;;;;;;;;5094476;28;20109;-82
2023/07/14 01:36:25;;;;;;;5.70;3.35;;;;;;;;;;5095652;28;20044;-83
2023/07/14 01:38:53;;;;;;;4.40;3.00;;;;;;;;;;5095309;28;20044;-82
2023/07/14 01:41:20;;;;;;;7.45;3.50;;;;;;;;;;5095350;28;20091;-84
2023/07/14 01:43:48;;;;;;;3.90;3.25;;;;;;;;;;5095505;28;20052;-82
2023/07/14 01:46:17;;;;;;;7.15;3.15;;;;;;;;;;5096424;28;20086;-84
2023/07/14 01:48:51;;;;;;;4.18;2.78;;;;;;;;;;5096553;28;20131;-84
2023/07/14 01:51:19;;;;;;;4.22;2.75;;;;;;;;;;5095340;28;20052;-85
2023/07/14 01:53:56;;;;;;;3.50;3.10;;;;;;;;;;5095246;28;20052;-84
2023/07/14 01:56:23;;;;;;;7.78;3.03;;;;;;;;;;5095571;28;20083;-84
2023/07/14 01:58:57;;;;;;;5.07;3.45;;;;;;;;;;5096352;28;20097;-84
2023/07/14 02:01:25;;;;;;;4.60;3.40;;;;;;;;;;5095192;28;20473;-84
2023/07/14 02:03:53;;;;;;;3.85;3.28;;;;;;;;;;5094811;28;20407;-84
2023/07/14 02:06:22;;;;;;;3.42;3.13;;;;;;;;;;5094637;28;20048;-83
2023/07/14 02:08:50;;;;;;;3.00;2.75;;;;;;;;;;5095162;28;20075;-84
2023/07/14 02:11:22;;;;;;;4.38;3.00;;;;;;;;;;5094784;28;20048;-84
2023/07/14 02:13:52;;;;;;;3.85;3.22;;;;;;;;;;5096250;28;20052;-84
2023/07/14 02:16:19;;;;;;;4.00;3.15;;;;;;;;;;5094445;28;20052;-84
2023/07/14 02:18:47;;;;;;;3.67;2.72;;;;;;;;;;5094561;28;20072;-84
2023/07/14 02:21:17;;;;;;;4.32;3.45;;;;;;;;;;5094517;28;20504;-84
2023/07/14 02:23:45;;;;;;;5.32;3.10;;;;;;;;;;5096082;28;20130;-84
2023/07/14 02:26:31;;;;;;;5.07;3.10;;;;;;;;;;5094697;28;20048;-84
2023/07/14 02:28:58;;;;;;;5.10;3.15;;;;;;;;;;5095655;28;20055;-84
2023/07/14 02:31:39;;;;;;;5.38;2.83;;;;;;;;;;5094480;28;20094;-84
2023/07/14 02:34:10;;;;;;;3.42;3.00;;;;;;;;;;5094560;28;20117;-84
2023/07/14 02:36:43;;;;;;;3.83;3.13;;;;;;;;;;5094733;28;20051;-84
2023/07/14 02:39:11;;;;;;;4.13;3.30;;;;;;;;;;5094632;28;20055;-84
2023/07/14 02:41:40;;;;;;;3.97;3.42;;;;;;;;;;5093838;28;20514;-84
2023/07/14 02:44:08;;;;;;;6.82;3.40;;;;;;;;;;5095240;28;20063;-84
2023/07/14 02:46:39;;;;;;;7.72;3.15;;;;;;;;;;5094143;28;20458;-84
2023/07/14 02:49:07;;;;;;;3.05;2.85;;;;;;;;;;5095440;28;20048;-84
2023/07/14 02:51:34;;;;;;;3.80;3.13;;;;;;;;;;5095309;28;20055;-84
2023/07/14 02:54:01;;;;;;;3.85;3.55;;;;;;;;;;5094972;28;20474;-84
2023/07/14 02:56:29;;;;;;;7.90;3.30;;;;;;;;;;5095285;28;20385;-84
2023/07/14 02:58:56;;;;;;;4.80;3.20;;;;;;;;;;5095170;28;20097;-84
2023/07/14 03:01:24;;;;;;;3.20;2.92;;;;;;;;;;5094269;28;20451;-84
2023/07/14 03:03:51;;;;;;;5.72;3.67;;;;;;;;;;5095200;28;20059;-84
2023/07/14 03:06:19;;;;;;;3.78;3.08;;;;;;;;;;5093742;28;20052;-84
2023/07/14 03:08:47;;;;;;;4.07;2.80;;;;;;;;;;5093743;28;20048;-84
2023/07/14 03:11:14;;;;;;;8.27;3.40;;;;;;;;;;5094705;28;20492;-84
2023/07/14 03:13:43;;;;;;;5.03;3.60;;;;;;;;;;5095022;28;20071;-84
2023/07/14 03:16:10;;;;;;;3.30;3.10;;;;;;;;;;5093516;28;20052;-84
2023/07/14 03:18:38;;;;;;;4.68;3.13;;;;;;;;;;5093778;28;20404;-84
2023/07/14 03:21:05;;;;;;;4.75;3.40;;;;;;;;;;5094286;28;20067;-84
2023/07/14 03:23:33;;;;;;;4.78;3.55;;;;;;;;;;5094599;28;20091;-84
2023/07/14 03:26:07;;;;;;;6.07;3.75;;;;;;;;;;5093454;28;20062;-84
2023/07/14 03:28:35;;;;;;;6.32;3.90;;;;;;;;;;5093758;28;20097;-84
2023/07/14 03:31:03;;;;;;;5.13;3.85;;;;;;;;;;5094747;28;20048;-84
2023/07/14 03:33:32;;;;;;;5.32;4.00;;;;;;;;;;5093341;28;20055;-84
2023/07/14 03:36:06;;;;;;;4.28;3.88;;;;;;;;;;5093394;28;20068;-83
2023/07/14 03:38:40;;;;;;;6.38;3.83;;;;;;;;;;5094560;28;20051;-84
2023/07/14 03:41:08;;;;;;;4.57;3.72;;;;;;;;;;5094351;28;20075;-84
2023/07/14 03:43:35;;;;;;;4.03;3.67;;;;;;;;;;5093230;28;20419;-84
2023/07/14 03:46:02;;;;;;;5.53;3.90;;;;;;;;;;5092769;28;20044;-84
2023/07/14 03:48:30;;;;;;;10.32;4.70;;;;;;;;;;5094053;28;20466;-84
2023/07/14 03:51:03;;;;;;;6.97;3.90;;;;;;;;;;5093849;28;20051;-84
2023/07/14 03:53:30;;;;;;;6.72;4.40;;;;;;;;;;5094456;28;20586;-84
2023/07/14 03:55:58;;;;;;;6.07;4.45;;;;;;;;;;5092307;28;20051;-84
2023/07/14 03:58:27;;;;;;;14.60;6.40;;;;;;;;;;5092841;28;20470;-84
2023/07/14 04:00:58;;;;;;;7.43;5.10;;;;;;;;;;5092487;28;20385;-83
2023/07/14 04:03:26;;;;;;;7.95;4.15;;;;;;;;;;5092961;28;20075;-83
2023/07/14 04:05:53;;;;;;;10.48;3.97;;;;;;;;;;5093432;28;20059;-83
2023/07/14 04:08:21;;;;;;;7.18;3.83;;;;;;;;;;5092379;28;20044;-84
2023/07/14 04:10:49;;;;;;;4.75;3.90;;;;;;;;;;5092158;28;20492;-84
2023/07/14 04:13:16;;;;;;;4.32;3.30;;;;;;;;;;5092052;28;20137;-84
2023/07/14 04:15:44;;;;;;;5.70;3.33;;;;;;;;;;5092286;28;20056;-84
2023/07/14 04:18:12;;;;;;;7.18;3.28;;;;;;;;;;5092259;28;20044;-83
2023/07/14 04:20:39;;;;;;;4.43;3.35;;;;;;;;;;5092176;28;20416;-84
2023/07/14 04:23:06;;;;;;;7.72;3.40;;;;;;;;;;5092187;28;20048;-84
2023/07/14 04:25:35;;;;;;;5.80;3.25;;;;;;;;;;5093147;28;20048;-84
2023/07/14 04:28:03;;;;;;;3.55;2.88;;;;;;;;;;5091548;28;20460;-84
2023/07/14 04:30:31;;;;;;;4.05;3.00;;;;;;;;;;5092062;28;20044;-84
2023/07/14 04:32:58;;;;;;;3.80;2.90;;;;;;;;;;5091992;28;20193;-84
2023/07/14 04:35:26;;;;;;;6.85;3.42;;;;;;;;;;5092412;28;20056;-84
2023/07/14 04:37:53;;;;;;;3.13;2.85;;;;;;;;;;5092025;28;20048;-84
2023/07/14 04:40:21;;;;;;;3.63;3.33;;;;;;;;;;5091851;28;20529;-84
2023/07/14 04:43:03;;;;;;;3.83;3.10;;;;;;;;;;5091903;28;20048;-83
2023/07/14 04:45:30;;;;;;;3.53;3.22;;;;;;;;;;5093346;28;20131;-83
2023/07/14 04:47:57;;;;;;;4.78;3.53;;;;;;;;;;5091977;28;20443;-84
2023/07/14 04:50:26;;;;;;;3.47;3.08;;;;;;;;;;5092170;28;20077;-84
2023/07/14 04:52:53;;;;;;;6.57;3.35;;;;;;;;;;5091799;28;20048;-84
2023/07/14 04:55:20;;;;;;;6.53;3.13;;;;;;;;;;5091937;28;20397;-84
2023/07/14 04:57:47;;;;;;;3.42;3.20;;;;;;;;;;5091729;28;20105;-84
2023/07/14 05:00:17;;;;;;;5.97;3.42;;;;;;;;;;5093025;28;20497;-84
2023/07/14 05:02:45;;;;;;;6.80;3.30;;;;;;;;;;5092866;28;20055;-84
2023/07/14 05:05:17;;;;;;;7.72;3.20;;;;;;;;;;5092925;28;20134;-85
2023/07/14 05:07:45;;;;;;;4.15;3.00;;;;;;;;;;5092589;28;20048;-84
2023/07/14 05:10:12;;;;;;;4.82;2.70;;;;;;;;;;5092878;28;20044;-85
2023/07/14 05:12:39;;;;;;;5.70;3.13;;;;;;;;;;5091794;28;20051;-84
2023/07/14 05:15:10;;;;;;;4.20;3.15;;;;;;;;;;5092797;28;20286;-84
2023/07/14 05:17:38;;;;;;;4.38;2.72;;;;;;;;;;5091398;28;20450;-81
2023/07/14 05:20:06;;;;;;;5.22;3.10;;;;;;;;;;5091396;28;20048;-82
2023/07/14 05:22:34;;;;;;;3.90;2.42;;;;;;;;;;5091381;28;20051;-82
2023/07/14 05:25:01;;;;;;;5.15;2.92;;;;;;;;;;5091382;28;20055;-82
2023/07/14 05:27:28;;;;;;;6.13;2.42;;;;;;;;;;5091374;28;20048;-82
2023/07/14 05:29:56;;;;;;;3.08;2.30;;;;;;;;;;5091645;28;20103;-83
2023/07/14 05:32:24;;;;;;;2.35;2.15;;;;;;;;;;5092169;28;20124;-83
2023/07/14 05:34:51;;;;;;;3.92;2.55;;;;;;;;;;5091232;28;20048;-83
2023/07/14 05:37:19;;;;;;;3.67;2.53;;;;;;;;;;5091479;28;20052;-82
2023/07/14 05:39:46;;;;;;;5.20;2.33;;;;;;;;;;5092515;28;20056;-83
2023/07/14 05:42:14;;;;;;;4.50;2.22;;;;;;;;;;5091000;28;20052;-82
2023/07/14 05:44:41;;;;;;;3.38;2.22;;;;;;;;;;5092361;28;20080;-82
2023/07/14 05:47:08;;;;;;;4.32;2.55;;;;;;;;;;5092166;28;20088;-82
2023/07/14 05:49:36;;;;;;;6.78;2.28;;;;;;;;;;5091442;28;20097;-82
2023/07/14 05:52:03;;;;;;;5.25;3.40;;;;;;;;;;5092458;28;20052;-82
2023/07/14 05:54:31;;;;;;;3.40;2.58;;;;;;;;;;5091321;28;20477;-82
2023/07/14 05:56:58;;;;;;;5.18;2.25;;;;;;;;;;5092322;28;20070;-82
2023/07/14 05:59:26;;;;;;;5.93;2.35;;;;;;;;;;5090690;28;20054;-82
2023/07/14 06:01:53;;;;;;;2.20;1.75;;;;;;;;;;5090584;28;20090;-83
2023/07/14 06:04:20;;;;;;;8.45;2.22;;;;;;;;;;5091186;28;20048;-82
2023/07/14 06:06:48;;;;;;;5.03;1.98;;;;;;;;;;5092336;28;20083;-83
2023/07/14 06:09:16;;;;;;;2.30;2.00;;;;;;;;;;5091118;28;20481;-83
2023/07/14 06:11:44;;;;;;;3.90;2.22;;;;;;;;;;5090766;28;20048;-83
2023/07/14 06:14:11;;;;;;;9.35;2.40;;;;;;;;;;5090705;28;20496;-83
2023/07/14 06:16:39;;;;;;;5.28;2.03;;;;;;;;;;5091072;28;20051;-82
2023/07/14 06:19:07;;;;;;;4.72;2.03;;;;;;;;;;5093590;28;20101;-83
2023/07/14 06:21:34;;;;;;;2.88;1.88;;;;;;;;;;5094902;28;20058;-82
2023/07/14 06:24:01;;;;;;;2.00;1.70;;;;;;;;;;5095120;28;20048;-83
2023/07/14 06:26:29;;;;;;;3.25;1.98;;;;;;;;;;5095750;28;20040;-84
2023/07/14 06:28:56;;;;;;;5.47;2.25;;;;;;;;;;5094426;28;20055;-83
2023/07/14 06:31:23;;;;;;;7.07;1.88;;;;;;;;;;5094620;28;20102;-83
2023/07/14 06:33:51;;;;;;;13.85;2.83;;;;;;;;;;5094663;28;20048;-83
2023/07/14 06:36:18;;;;;;;3.75;1.75;;;;;;;;;;5095899;28;20048;-83
2023/07/14 06:38:45;;;;;;;3.88;1.98;;;;;;;;;;5094535;28;20475;-83
2023/07/14 06:41:12;;;;;;;6.28;1.48;;;;;;;;;;5093845;28;20082;-82
2023/07/14 06:43:40;;;;;;;16.77;2.70;;;;;;;;;;5094011;28;20451;-83
2023/07/14 06:46:07;;;;;;;16.25;3.30;;;;;;;;;;5094211;28;20078;-83
2023/07/14 06:48:35;;;;;;;9.27;1.80;;;;;;;;;;5094453;28;20048;-83
2023/07/14 06:51:02;;;;;;;10.38;2.55;;;;;;;;;;5095459;28;20048;-84
2023/07/14 06:53:30;;;;;;;14.07;2.60;;;;;;;;;;5094930;28;20076;-83
2023/07/14 06:55:57;;;;;;;12.48;2.78;;;;;;;;;;5093436;28;20044;-83
2023/07/14 06:58:25;;;;;;;5.03;2.22;;;;;;;;;;5094104;28;20047;-83
2023/07/14 07:00:53;;;;;;;6.68;1.60;;;;;;;;;;5095403;28;20094;-84
2023/07/14 07:03:21;;;;;;;4.75;1.60;;;;;;;;;;5094184;28;20052;-84
2023/07/14 07:05:50;;;;;;;7.72;1.70;;;;;;;;;;5094383;28;20083;-83
2023/07/14 07:08:18;;;;;;;14.02;2.75;;;;;;;;;;5093780;28;20079;-83
2023/07/14 07:10:47;;;;;;;11.73;2.33;;;;;;;;;;5093835;28;20097;-83
2023/07/14 07:13:15;;;;;;;17.40;2.40;;;;;;;;;;5095062;28;20048;-83
2023/07/14 07:15:43;;;;;;;6.05;1.70;;;;;;;;;;5094587;28;20070;-83
2023/07/14 07:18:15;;;;;;;5.82;1.83;;;;;;;;;;5093327;28;20047;-84
2023/07/14 07:20:43;;;;;;;3.90;1.05;;;;;;;;;;5093570;28;20082;-83
2023/07/14 07:23:11;;;;;;;4.20;1.10;;;;;;;;;;5093557;28;20044;-83
2023/07/14 07:25:38;;;;;;;6.30;1.27;;;;;;;;;;5093731;28;20109;-84
2023/07/14 07:28:06;;;;;;;2.30;0.93;;;;;;;;;;5094566;28;20102;-84
2023/07/14 07:30:33;;;;;;;3.22;0.95;;;;;;;;;;5092543;28;20131;-85
2023/07/14 07:33:00;;;;;;;1.38;0.90;;;;;;;;;;5093342;28;20097;-83
2023/07/14 07:35:28;;;;;;;4.72;1.17;;;;;;;;;;5093742;28;20044;-83
2023/07/14 07:37:55;;;;;;;4.85;1.20;;;;;;;;;;5093405;28;20471;-83
2023/07/14 07:40:22;;;;;;;2.45;1.20;;;;;;;;;;5094483;28;20044;-83
2023/07/14 07:42:49;;;;;;;4.22;1.00;;;;;;;;;;5092865;28;20057;-83
2023/07/14 07:45:17;;;;;;;1.60;1.00;;;;;;;;;;5093423;28;20048;-85
2023/07/14 07:47:45;;;;;;;2.53;0.90;;;;;;;;;;5093141;28;20484;-84
2023/07/14 07:50:12;;;;;;;7.50;1.15;;;;;;;;;;5094688;28;20507;-84
2023/07/14 07:52:40;;;;;;;3.63;0.90;;;;;;;;;;5093545;28;20075;-83
2023/07/14 07:55:09;;;;;;;1.60;0.85;;;;;;;;;;5093285;28;20048;-85
2023/07/14 07:57:36;;;;;;;0.93;0.82;;;;;;;;;;5093915;28;20067;-84
2023/07/14 08:00:05;;;;;;;1.05;0.80;;;;;;;;;;5093701;28;20076;-85
2023/07/14 08:02:35;;;;;;;6.32;1.42;;;;;;;;;;5093316;28;20079;-90
2023/07/14 08:05:03;;;;;;;1.25;0.80;;;;;;;;;;5093320;28;20048;-84
2023/07/14 08:07:31;;;;;;;1.90;0.73;;;;;;;;;;5093235;28;20048;-84
2023/07/14 08:09:58;;;;;;;2.63;0.70;;;;;;;;;;5092764;28;20076;-84
2023/07/14 08:12:25;;;;;;;2.10;0.98;;;;;;;;;;5093108;28;20557;-84
2023/07/14 08:14:53;;;;;;;1.15;0.80;;;;;;;;;;5092701;28;20377;-84
2023/07/14 08:17:31;;;;;;;3.15;0.70;;;;;;;;;;5092972;28;20104;-85
2023/07/14 08:19:59;;;;;;;2.53;0.70;;;;;;;;;;5093662;28;20052;-84
2023/07/14 08:22:26;;;;;;;5.72;1.08;;;;;;;;;;5092697;28;20063;-83
2023/07/14 08:24:57;;;;;;;2.75;0.90;;;;;;;;;;5093607;28;20055;-84
2023/07/14 08:27:24;;;;;;;0.80;0.80;;;;;;;;;;5092509;28;20506;-85
2023/07/14 08:29:53;;;;;;;3.45;1.10;;;;;;;;;;5092657;28;20047;-85
2023/07/14 08:32:21;;;;;;;3.95;1.08;;;;;;;;;;5092714;28;20412;-86
2023/07/14 08:34:48;;;;;;;3.83;1.13;;;;;;;;;;5092731;28;20098;-86
2023/07/14 08:37:15;;;;;;;3.47;1.27;;;;;;;;;;5092925;28;20056;-84
2023/07/14 08:39:44;;;;;;;4.75;1.00;;;;;;;;;;5092855;28;20066;-86
2023/07/14 08:42:21;;;;;;;4.75;1.10;;;;;;;;;;5092088;28;20063;-87
2023/07/14 08:45:01;;;;;;;1.63;0.90;;;;;;;;;;5092544;28;20048;-85
2023/07/14 08:47:47;;;;;;;1.10;1.10;;;;;;;;;;5092630;28;20072;-85
2023/07/14 08:50:19;;;;;;;1.83;1.00;;;;;;;;;;5092317;28;20052;-85
2023/07/14 08:52:48;;;;;;;3.70;1.00;;;;;;;;;;5092335;28;20054;-85
2023/07/14 08:55:23;;;;;;;1.67;1.15;;;;;;;;;;5093657;28;20480;-86
2023/07/14 08:58:02;;;;;;;3.63;2.80;;;;;;;;;;5092688;28;20496;-85
2023/07/14 09:00:33;;;;;;;2.28;1.27;;;;;;;;;;5092536;28;20089;-85
2023/07/14 09:03:06;;;;;;;23.27;17.73;;;;;;;;;;5092837;28;20044;-84
2023/07/14 09:05:35;;;;;;;13.05;10.10;;;;;;;;;;5092456;28;20052;-85
2023/07/14 09:08:03;;;;;;;4.93;4.43;;;;;;;;;;5091931;28;20048;-86
2023/07/14 09:10:41;;;;;;;2.40;2.20;;;;;;;;;;5092391;28;20091;-86
2023/07/14 09:13:33;;;;;;;3.70;1.73;;;;;;;;;;5093234;28;20105;-86
2023/07/14 09:16:00;;;;;;;6.63;4.70;;;;;;;;;;5092294;28;20076;-86
2023/07/14 09:18:28;;;;;;;5.45;2.47;;;;;;;;;;5092319;28;20511;-84
2023/07/14 09:21:03;;;;;;;1.50;1.23;;;;;;;;;;5093112;28;20450;-85
2023/07/14 09:23:39;;;;;;;3.53;1.55;;;;;;;;;;5093319;28;20051;-86
2023/07/14 09:26:19;;;;;;;1.77;1.00;;;;;;;;;;5092272;28;20105;-85
2023/07/14 09:28:48;;;;;;;3.53;1.10;;;;;;;;;;5093175;28;20557;-86
2023/07/14 09:31:37;;;;;;;2.20;1.05;;;;;;;;;;5092014;28;20051;-85
2023/07/14 09:34:26;;;;;;;2.58;1.27;;;;;;;;;;5092179;28;20055;-86
2023/07/14 09:36:54;;;;;;;1.08;1.00;;;;;;;;;;5091977;28;20458;-85
2023/07/14 09:39:30;;;;;;;2.97;1.00;;;;;;;;;;5093303;28;20051;-87
2023/07/14 09:41:59;;;;;;;1.67;1.08;;;;;;;;;;5091950;28;20079;-85
2023/07/14 09:44:27;;;;;;;9.98;1.60;;;;;;;;;;5091861;28;20127;-87
2023/07/14 09:46:55;;;;;;;9.45;1.50;;;;;;;;;;5091524;28;20102;-86
2023/07/14 09:49:28;;;;;;;1.33;0.90;;;;;;;;;;5091725;28;20074;-86
2023/07/14 09:52:12;;;;;;;3.63;1.38;;;;;;;;;;5091778;28;20052;-84
2023/07/14 09:54:49;;;;;;;2.20;0.82;;;;;;;;;;5094119;28;20472;-86
2023/07/14 09:57:18;;;;;;;2.15;1.00;;;;;;;;;;5096196;28;20098;-84
2023/07/14 10:00:01;;;;;;;4.00;0.90;;;;;;;;;;5095713;28;20072;-86
2023/07/14 10:38:34;;;;;;;1.67;0.93;;;;;;;;;;5175311;27;20368;-81
2023/07/14 10:41:01;;;;;;;4.63;1.17;;;;;;;;;;5174949;27;20046;-80
2023/07/14 10:43:37;;;;;;;2.45;1.00;;;;;;;;;;5175103;27;20047;-81
2023/07/14 10:46:15;;;;;;;3.78;1.17;;;;;;;;;;5179119;27;20457;-81
2023/07/14 10:48:47;;;;;;;2.15;0.95;;;;;;;;;;5179844;27;20085;-80
2023/07/14 10:51:32;;;;;;;2.60;1.02;;;;;;;;;;5180228;27;20066;-80
2023/07/14 11:10:13;;;;;;;3.10;1.13;;;;;;;;;;4988051;28;20049;-86
2023/07/14 11:12:48;;;;;;;1.55;1.05;;;;;;;;;;4988585;28;20058;-85
2023/07/14 11:15:25;;;;;;;3.70;1.27;;;;;;;;;;4990875;28;20050;-85
2023/07/14 11:18:08;;;;;;;1.73;1.05;;;;;;;;;;4989517;28;20109;-85
2023/07/14 11:20:51;;;;;;;1.88;1.13;;;;;;;;;;4989370;28;20105;-85
2023/07/14 11:23:21;;;;;;;5.72;1.10;;;;;;;;;;4990744;28;20046;-87
2023/07/14 11:25:48;;;;;;;1.48;1.10;;;;;;;;;;4989391;28;20410;-84
2023/07/14 11:28:36;;;;;;;3.85;1.10;;;;;;;;;;4990269;28;20085;-83
2023/07/14 11:31:10;;;;;;;6.80;1.00;;;;;;;;;;4989526;28;20391;-87
2023/07/14 11:33:45;;;;;;;5.63;1.30;;;;;;;;;;4989164;28;20062;-84
2023/07/14 11:36:19;;;;;;;4.07;1.02;;;;;;;;;;4990091;28;20047;-84
2023/07/14 11:38:51;;;;;;;4.00;1.13;;;;;;;;;;4980024;28;20051;-86
2023/07/14 11:41:19;;;;;;;3.22;1.05;;;;;;;;;;4976439;28;20051;-87
2023/07/14 11:43:47;;;;;;;4.75;1.10;;;;;;;;;;4976436;28;20051;-86
2023/07/14 11:46:19;;;;;;;3.13;1.10;;;;;;;;;;4976198;28;20055;-84
2023/07/14 11:48:49;;;;;;;2.22;1.10;;;;;;;;;;4975939;28;20047;-87
2023/07/14 11:51:17;;;;;;;1.85;1.00;;;;;;;;;;4976092;28;20494;-85
2023/07/14 11:54:05;;;;;;;3.20;1.33;;;;;;;;;;4977176;28;20065;-84
2023/07/14 11:56:38;;;;;;;2.25;1.10;;;;;;;;;;4976987;28;20051;-89
2023/07/14 11:59:11;;;;;;;0.95;0.90;;;;;;;;;;4975979;28;20061;-85
2023/07/14 12:01:39;;;;;;;;;;;;;;;;;;4976265;28;20090;-85
2023/07/14 12:04:18;;;;;;;2.78;1.20;;;;;;;;;;4975667;28;20033;-86
2023/07/14 12:06:50;;;;;;;2.97;1.17;;;;;;;;;;4975834;28;20411;-85
2023/07/14 12:09:18;;;;;;;5.90;1.45;;;;;;;;;;4975579;28;20059;-84
2023/07/14 12:11:58;;;;;;;3.92;1.08;;;;;;;;;;4975609;28;20047;-84
2023/07/14 12:14:38;;;;;;;2.63;1.30;;;;;;;;;;4976735;28;20511;-84
2023/07/14 12:17:25;;;;;;;4.53;1.30;;;;;;;;;;4976687;28;20082;-85
2023/07/14 12:19:53;;;;;;;2.05;1.23;;;;;;;;;;4975375;28;20086;-86
2023/07/14 12:22:37;;;;;;;14.25;4.93;;;;;;;;;;4976848;28;20078;-85
2023/07/14 12:25:10;;;;;;;2.65;1.20;;;;;;;;;;4976840;28;20058;-85
2023/07/14 12:27:38;;;;;;;5.07;1.15;;;;;;;;;;4976270;28;20047;-87
2023/07/14 12:30:16;;;;;;;1.30;1.10;;;;;;;;;;4976338;28;20046;-85
2023/07/14 12:32:43;;;;;;;4.28;1.20;;;;;;;;;;4976259;28;20102;-84
2023/07/14 12:35:14;;;;;;;2.45;1.30;;;;;;;;;;4975306;28;20051;-85
2023/07/14 12:37:46;;;;;;;3.10;1.38;;;;;;;;;;4975164;28;20054;-89
2023/07/14 12:40:21;;;;;;;4.65;1.17;;;;;;;;;;4975551;28;20054;-85
2023/07/14 12:42:50;;;;;;;3.80;1.30;;;;;;;;;;4975511;28;20062;-86
2023/07/14 12:45:19;;;;;;;5.07;1.80;;;;;;;;;;4974863;28;20490;-86
2023/07/14 12:47:47;;;;;;;12.25;1.52;;;;;;;;;;4974979;28;20047;-83
2023/07/14 12:50:16;;;;;;;5.15;1.52;;;;;;;;;;4974175;28;20058;-85
2023/07/14 12:52:44;;;;;;;9.77;2.97;;;;;;;;;;4974548;28;20466;-86
2023/07/14 12:55:16;;;;;;;8.60;2.92;;;;;;;;;;4974766;28;20090;-86
2023/07/14 12:57:43;;;;;;;3.28;1.20;;;;;;;;;;4975820;28;20078;-87
2023/07/14 13:00:23;;;;;;;2.75;1.38;;;;;;;;;;4974804;28;20097;-85
2023/07/14 13:02:52;;;;;;;1.48;1.38;;;;;;;;;;4974890;28;20396;-87
2023/07/14 13:05:20;;;;;;;2.33;1.50;;;;;;;;;;4975060;28;20054;-84
2023/07/14 13:07:49;;;;;;;1.35;1.25;;;;;;;;;;4974970;28;20054;-93
2023/07/14 13:10:19;;;;;;;4.10;1.42;;;;;;;;;;4974764;28;20089;-85
2023/07/14 13:12:48;;;;;;;2.05;1.17;;;;;;;;;;4974992;28;20059;-87
2023/07/14 13:15:16;;;;;;;2.97;1.30;;;;;;;;;;4975721;28;20470;-85
2023/07/14 13:17:44;;;;;;;4.00;1.48;;;;;;;;;;4974760;28;20074;-90
2023/07/14 13:20:15;;;;;;;1.33;0.88;;;;;;;;;;4974217;28;20047;-85
2023/07/14 13:22:42;;;;;;;1.92;1.30;;;;;;;;;;4974284;28;20051;-85
2023/07/14 13:25:17;;;;;;;3.75;1.25;;;;;;;;;;4975166;28;20491;-87
2023/07/14 13:27:45;;;;;;;2.83;1.35;;;;;;;;;;4982291;28;20082;-86
2023/07/14 13:30:33;;;;;;;8.95;1.90;;;;;;;;;;4990968;28;20050;-88
2023/07/14 13:33:02;;;;;;;2.45;1.63;;;;;;;;;;4994439;28;20514;-83
2023/07/14 13:35:30;;;;;;;6.53;1.40;;;;;;;;;;4994523;28;20410;-85
2023/07/14 13:38:02;;;;;;;5.95;1.40;;;;;;;;;;4993731;28;20450;-86
2023/07/14 13:40:34;;;;;;;10.18;1.70;;;;;;;;;;4994319;28;20054;-86
2023/07/14 13:43:04;;;;;;;4.68;1.40;;;;;;;;;;4993298;28;20050;-85
2023/07/14 13:45:38;;;;;;;2.45;1.50;;;;;;;;;;4993244;28;20505;-85
2023/07/14 13:48:24;;;;;;;7.30;1.67;;;;;;;;;;4993457;28;20058;-85
2023/07/14 13:50:51;;;;;;;1.38;1.27;;;;;;;;;;4993404;28;20047;-85
2023/07/14 13:53:18;;;;;;;4.05;1.52;;;;;;;;;;4993334;28;20046;-85
2023/07/14 13:55:47;;;;;;;5.55;1.75;;;;;;;;;;4993078;28;20109;-88
2023/07/14 13:58:14;;;;;;;1.60;1.45;;;;;;;;;;4992953;28;20109;-84
2023/07/14 14:00:43;;;;;;;6.63;1.65;;;;;;;;;;4992568;28;20046;-85
2023/07/14 14:03:11;;;;;;;4.45;1.40;;;;;;;;;;4992934;28;20483;-84
2023/07/14 14:05:39;;;;;;;4.05;1.38;;;;;;;;;;4992972;28;20486;-86
2023/07/14 14:08:11;;;;;;;6.97;1.52;;;;;;;;;;4992678;28;20066;-85
2023/07/14 14:10:38;;;;;;;34.58;4.03;;;;;;;;;;4992912;28;20042;-85
2023/07/14 14:13:05;;;;;;;4.53;1.73;;;;;;;;;;4994024;28;20506;-85
2023/07/14 14:15:44;;;;;;;12.50;2.38;;;;;;;;;;4993854;28;20050;-84
2023/07/14 14:18:16;;;;;;;2.25;1.38;;;;;;;;;;4992369;28;20116;-84
2023/07/14 14:20:43;;;;;;;2.70;1.63;;;;;;;;;;4992688;28;20050;-85
2023/07/14 14:23:15;;;;;;;2.85;1.30;;;;;;;;;;4992779;28;20050;-86
2023/07/14 14:25:42;;;;;;;2.45;1.23;;;;;;;;;;4994013;28;20105;-83
2023/07/14 14:28:10;;;;;;;5.25;1.88;;;;;;;;;;4993534;28;20090;-84
2023/07/14 14:30:40;;;;;;;1.77;1.40;;;;;;;;;;4993537;28;20074;-86
2023/07/14 14:33:31;;;;;;;4.50;1.30;;;;;;;;;;4993599;28;20077;-84
2023/07/14 14:35:58;;;;;;;1.85;1.58;;;;;;;;;;4985457;28;20103;-85
2023/07/14 14:38:29;;;;;;;4.82;2.10;;;;;;;;;;4993566;28;20050;-84
2023/07/14 14:41:30;;;;;;;2.92;1.70;;;;;;;;;;4993064;28;20124;-85
2023/07/14 14:43:57;;;;;;;3.83;1.52;;;;;;;;;;4993694;28;20054;-85
2023/07/14 14:46:25;;;;;;;5.88;1.50;;;;;;;;;;4993942;28;20046;-85
2023/07/14 14:48:52;;;;;;;4.20;1.60;;;;;;;;;;4992275;28;20046;-84
2023/07/14 14:51:19;;;;;;;3.95;1.60;;;;;;;;;;4993394;28;20055;-85
2023/07/14 14:53:47;;;;;;;3.65;1.27;;;;;;;;;;4992591;28;20054;-85
2023/07/14 14:56:15;;;;;;;2.97;1.35;;;;;;;;;;4993742;28;20560;-85
2023/07/14 14:58:42;;;;;;;1.73;1.35;;;;;;;;;;4993566;28;20098;-85
2023/07/14 15:01:17;;;;;;;1.80;1.60;;;;;;;;;;4993641;28;20549;-84
2023/07/14 15:03:44;;;;;;;2.25;1.42;;;;;;;;;;4993223;28;20073;-84
2023/07/14 15:06:12;;;;;;;3.20;1.52;;;;;;;;;;4993587;28;20100;-84
2023/07/14 15:08:39;;;;;;;3.17;1.38;;;;;;;;;;4992857;28;20054;-84
2023/07/14 15:11:09;;;;;;;3.55;1.65;;;;;;;;;;4993327;28;20077;-84
2023/07/14 15:13:37;;;;;;;1.85;1.40;;;;;;;;;;4994878;28;20062;-84
2023/07/14 15:16:05;;;;;;;3.90;1.83;;;;;;;;;;4996365;28;20078;-85
2023/07/14 15:18:32;;;;;;;5.07;1.95;;;;;;;;;;4995614;28;20054;-84
2023/07/14 15:20:59;;;;;;;5.28;1.40;;;;;;;;;;4995981;28;20100;-86
2023/07/14 15:23:27;;;;;;;2.40;1.40;;;;;;;;;;4996123;28;20468;-85
2023/07/14 15:25:55;;;;;;;3.80;1.27;;;;;;;;;;4996150;28;20097;-85
2023/07/14 15:28:25;;;;;;;3.72;1.42;;;;;;;;;;4995897;28;20074;-85
2023/07/14 15:30:53;;;;;;;5.00;1.45;;;;;;;;;;4995855;28;20511;-85
2023/07/14 15:33:20;;;;;;;1.70;1.15;;;;;;;;;;4996806;28;20109;-84
2023/07/14 15:35:50;;;;;;;9.15;1.50;;;;;;;;;;4995750;28;20112;-84
2023/07/14 15:38:24;;;;;;;3.13;1.58;;;;;;;;;;4996251;28;20050;-85
2023/07/14 15:40:53;;;;;;;2.78;1.35;;;;;;;;;;4997594;28;20073;-89
2023/07/14 15:43:20;;;;;;;3.80;1.40;;;;;;;;;;4995998;28;20050;-84
2023/07/14 15:45:48;;;;;;;14.77;2.17;;;;;;;;;;4995729;28;20046;-84
2023/07/14 15:48:29;;;;;;;2.35;1.40;;;;;;;;;;4995465;28;20058;-85
2023/07/14 15:51:22;;;;;;;1.67;1.20;;;;;;;;;;4995852;28;20057;-83
2023/07/14 15:53:50;;;;;;;3.72;2.03;;;;;;;;;;4995902;28;20057;-86